Plymouth, ME (04969)

1:50 AM EST on December 20, 2014 (GMT -0500)
APRSWXNET Plymouth ME US | Change Station
CLOSE
Current Station
Personal Weather Station
Location: Plymouth, ME
Elevation: 316 ft
Nearby Weather Stations

Elev 316 ft 44.80 °N, 69.26 °W | Updated 39 minutes ago

Clear
Clear
19 °F
Feels Like 19 °F
N
2
Wind Variable Wind from North
Gusts 4.0 mph

Today
High -- | Low -- °F
--% Chance of Precip.
Yesterday
High -- | Low -- °F
Precip. -- in
7:10 AM 3:58 PM
Waning Crescent, 4% visible
Pressure 30.19 in
Visibility 10.0 miles
Clouds Clear
Windchill 19 °F
Dew Point 17 °F
Humidity 91%
Rainfall 0.00 in
Snow Depth Not available.
UV 0 out of 12
Pollen .10 out of 12
Air Quality Not available.
Flu Activity Not available.
METAR KBGR 200553Z COR 00000KT 10SM CLR M09/M10 A3018 RMK AO2 SLP222 4/002 T10891100 11039 21089 51021

More Conditions Fewer Conditions

Pressure 30.19 in
Visibility 10.0 miles
Clouds Clear
Windchill 19 °F
Dew Point 17 °F
Humidity 91%
Rainfall 0.00 in
Snow Depth Not available.
UV 0 out of 12
Pollen .10 out of 12
Air Quality Not available.
Flu Activity Not available.
METAR KBGR 200553Z COR 00000KT 10SM CLR M09/M10 A3018 RMK AO2 SLP222 4/002 T10891100 11039 21089 51021

More Conditions Fewer Conditions

10-Day Weather Forecast

Almanac

Astronomy

Dec. 20, 2014 Rise Set
Actual Time
Civil Twilight
Nautical Twilight
Astronomical Twilight
Moon
Length of Visible Light
Length of Day
Tomorrow will be .
, % of the Moon is Illuminated

Today's Extremes

State Highs State Lows

Community

WunderPhotos

Upload Photos

1,779,144 photos uploaded!

WunderBlogs® & News

Nearby

Air Quality

  Air Quality AQ Index Pollutant
Not available.

Snow Depth

Station Depth Elevation

Earthquake Activity

City Distance Mag. Time & Date
Minimum magnitude displayed is 2.5.

Coastal Water Temperatures

Place Temperature

Nearby Weather Stations